CST,Max TemperatureF,Mean TemperatureF,Min TemperatureF,Max Dew PointF,MeanDew PointF,Min DewpointF,Max Humidity, Mean Humidity, Min Humidity, Max Sea Level PressureIn, Mean Sea Level PressureIn, Min Sea Level PressureIn, Max VisibilityMiles, Mean VisibilityMiles, Min VisibilityMiles, Max Wind SpeedMPH, Mean Wind SpeedMPH, Max Gust SpeedMPH,PrecipitationIn, CloudCover, Events, WindDirDegrees
2012-11-1,37,32,28,36,27,25,100,84,70,30.12,30.06,29.98,10,10,5,14,10,22,0.00,8,Snow,328
2012-11-2,35,30,24,25,23,21,93,78,56,30.20,30.16,30.11,10,10,10,8,5,,0.00,4,,54
2012-11-3,35,30,26,30,28,25,100,90,81,30.24,30.22,30.19,10,10,2,6,3,,0.01,7,Snow,72
2012-11-4,44,32,19,34,25,18,100,85,53,30.24,30.22,30.18,10,10,10,12,3,,0.00,1,,92
2012-11-5,42,33,24,34,28,23,100,84,57,30.25,30.08,29.75,10,9,1,12,5,,0.09,7,Rain-Snow,127
2012-11-6,35,34,33,36,34,32,100,95,93,29.98,29.77,29.62,10,8,2,14,8,20,0.04,8,Rain-Snow,275
2012-11-7,39,37,35,37,35,34,100,90,81,30.06,29.99,29.88,10,10,7,9,4,17,0.00,6,Rain,239
2012-11-8,41,36,32,37,34,30,93,86,76,30.15,29.94,29.78,10,10,7,13,8,21,0.02,6,Rain-Snow,275
2012-11-9,33,30,28,30,26,21,93,83,70,30.20,30.15,30.05,10,10,10,17,9,23,0.00,7,,41
2012-11-10,35,32,28,36,30,25,100,94,80,30.04,29.73,29.41,10,6,1,17,12,25,0.01,8,Snow,64
2012-11-11,35,28,21,36,24,16,100,88,80,29.72,29.61,29.39,10,8,1,21,11,28,0.00,8,Snow,238
2012-11-12,24,22,19,21,18,16,93,88,80,30.14,29.90,29.71,10,9,3,21,15,26,0.00,8,Snow,261
2012-11-13,30,22,14,25,20,12,93,86,69,30.22,30.19,30.15,10,10,10,12,5,17,0.00,5,,198
2012-11-14,42,27,12,32,24,12,100,85,61,30.21,30.11,29.99,10,10,7,9,2,,0.00,1,,163
2012-11-15,37,24,10,34,20,7,100,75,37,30.45,30.26,29.98,10,10,10,13,8,20,0.00,1,,270
2012-11-16,39,24,10,19,14,9,93,61,33,30.45,30.31,30.14,10,10,10,14,5,23,0.00,0,,144
2012-11-17,46,40,33,36,31,19,81,70,56,30.13,30.10,30.07,10,10,10,13,8,20,0.00,1,,149
2012-11-18,53,45,37,36,35,32,87,69,51,30.07,30.01,29.94,10,10,10,10,6,16,0.00,2,,136
2012-11-19,48,38,26,37,34,25,100,79,66,30.13,30.00,29.92,10,9,4,12,5,16,0.00,1,Rain-Thunderstorm,220
2012-11-20,48,34,19,37,27,19,100,79,40,30.14,30.04,29.88,10,6,0,12,3,17,0.00,2,Fog-Snow,146
2012-11-21,46,38,30,36,32,27,93,73,61,29.88,29.78,29.53,10,10,10,8,4,,0.00,0,,148
2012-11-22,39,28,17,36,27,16,100,93,81,30.02,29.71,29.50,10,6,1,20,7,29,0.05,5,Snow,276
2012-11-23,19,14,6,16,12,5,93,84,68,30.37,30.28,30.03,10,8,2,18,13,24,0.00,6,Snow,304
2012-11-24,24,12,0,21,11,-2,100,89,74,30.31,29.97,29.75,10,8,1,14,4,18,0.00,6,Snow,150
2012-11-25,24,14,3,21,12,0,100,84,68,30.19,29.94,29.78,10,9,2,16,10,22,0.00,6,Snow,285
2012-11-26,32,16,0,30,3,-4,93,82,73,30.34,30.25,30.10,10,10,5,13,8,17,0.00,4,Snow,246
2012-11-27,24,17,10,21,15,5,100,85,73,30.21,30.09,30.04,10,8,2,13,8,20,0.00,8,Snow,259
2012-11-28,28,14,0,25,14,-4,100,86,74,30.25,30.12,29.99,10,9,3,15,4,20,0.00,6,Snow,245
2012-11-29,17,14,10,10,9,7,92,81,68,30.25,30.20,30.14,10,10,7,14,9,17,0.00,7,,48
2012-11-30,30,22,14,28,20,10,93,88,80,30.23,30.10,29.93,10,10,7,13,8,18,0.00,8,,109